Strait of Georgia - north of Nanaimo: Past 24 Hour Conditions

 

Victoria Int'l Airport

09:00 AM PDT 30 September 2014
This table is a summary of hourly weather conditions for the past 24 hours.
Date / Time
(PDT)
Wind(knots) Conditions Visibility(km) Pressure(kPa) Air tempC) Relative humidity(%) Dew pointC)
30 September 2014
9:00 WNW 8 Mainly Sunny 48 101.7 14 73 10
8:00 W 6 Partly Cloudy 48 101.7 13 78 9
7:00 SW 3 Partly Cloudy 48 101.6 11 82 8
6:00 W 9 Partly Cloudy 48 101.6 13 76 8
5:00 W 5 Mainly Clear 48 101.5 11 81 7
4:00 SW 5 Mainly Clear 48 101.5 8 88 6
3:00 WSW 6 Mainly Clear 48 101.5 12 77 8
2:00 WSW 9 Mainly Clear 48 101.5 13 74 8
1:00 WSW 5 Mainly Clear 48 101.4 13 73 8
0:00 WSW 4 Mainly Clear 48 101.4 14 69 8
29 September 2014
23:00 WSW 13 Partly Cloudy 48 101.3 14 68 9
22:00 WSW 12 Mainly Clear 48 101.3 15 67 9
21:00 WSW 9 Mainly Clear 32 101.3 15 67 9
20:00 WSW 12 Partly Cloudy 32 101.2 16 64 9
19:00 SW 10 Mainly Clear 32 101.1 16 60 9
18:00 WSW 8 Partly Cloudy 32 101.1 19 56 10
17:00 S 6 Partly Cloudy 32 101.0 17 75 13
16:00 SE 13 Mainly Sunny 32 101.0 16 83 13
15:00 SE 16 gust 23 Partly Cloudy 32 101.0 14 91 12
14:00 SE 16 Light Rain 10 101.1 14 91 12
13:00 SE 14 gust 20 Light Rain 6 101.1 14 91 12
12:00 SE 15 gust 20 Mist 6 101.1 13 95 12
11:00 SE 10 Light Rain 5 101.1 12 98 12
10:00 ESE 13 Light Rain 13 101.1 12 98 12
9:00 SE 6 Light Rain 8 101.1 12 99 12
 
Map of Pacific - Georgia Basin marine weather areas Tsawwassen Ferry Terminal Sentry Shoal - 46131 Halibut Bank - 46146 La Perouse Bank - 46206 Discovery Island Esquimalt Harbour Kelp Reefs Malahat Race Rocks Lightstation Saturna Island Sheringham Point University of Victoria Victoria Gonzales Victoria Int'l Airport Ballenas Islands Campbell River Airport Comox Airport Entrance Island Fanny Island Nanaimo Airport Sisters Islets Estevan Point Tofino Airport Grief Point Powell River Airport Sechelt Point Atkinson Sand Heads Lightstation Vancouver Harbour Vancouver Int'l Airport West Vancouver Port Alberni Howe Sound - Pam Rocks Squamish Airport